AirNav   Everest Fuels
 
 450 users online  

LS37 West Calcasieu Cameron Hospital Heliport
Sulphur, Louisiana, USA

GOING TO SULPHUR?


FAA INFORMATION EFFECTIVE 08 SEPTEMBER 2022

Location

FAA Identifier: LS37
Lat/Long: 30-13-42.2900N 093-22-08.3700W
30-13.704833N 093-22.139500W
30.2284139,-93.3689917
(estimated)
Elevation: 11 ft. / 3 m (estimated)
Variation: 05E (1985)
Time zone: UTC -5 (UTC -6 during Standard Time)
Zip code: 70663

Heliport Operations

Heliport use: Private use. Permission required prior to landing
Activation date: 02/1987
Control tower: no
ARTCC: HOUSTON CENTER
FSS: DE RIDDER FLIGHT SERVICE STATION
Attendance: CONTINUOUS
Wind indicator: yes
Segmented circle: no
Lights: ACTVT PERIMETER LGTS - 122.5.

Heliport Communications

WX AWOS-3PT at UXL (6 nm S): 118.175 (337-558-5321)
WX ASOS at LCH (10 nm SE): PHONE 337-477-3371
WX AWOS-3 at CWF (12 nm E): 120.0 (337-436-3452)
WX AWOS-3PT at 5R8 (14 nm NW): 121.2 (337-786-1518)

Nearby radio navigation aids

VOR radial/distance  VOR name  Freq  Var
LCHr284/14.6LAKE CHARLES VORTAC113.4007E
BPTr056/37.6BEAUMONT VOR/DME114.5007E

 
NDB name  Hdg/Dist  Freq  Var  ID
SULPHUR052/3.227804EAUR .- ..- .-.
MOSSY238/10.141804ECW -.-. .--
DE RIDDER179/31.538504EDXB -.. -..- -...

Heliport Services

Runway Information

Helipad H1

Dimensions: 40 x 40 ft. / 12 x 12 m
Surface: concrete
Runway edge lights: low intensity
PERIMETER LGTS.
Latitude: 30-13.704833N
Longitude: 093-22.139500W
Elevation: 11.0 ft.
Traffic pattern: leftleft

Heliport Ownership and Management from official FAA records

Ownership: Publicly-owned
Owner: WEST CALCASIEU CAMERON HOSPITAL
701 EAST CYPRESS ST
SULPHUR, LA 70663
Phone 337-527-7034
Manager: GEOFF LANDRY
701 EAST CYPRESS ST
SULPHUR, LA 70663
Phone (337) 528-7497

Additional Remarks

FOR CD CTC LAKE CHARLES APCH AT 337-480-3103, WHEN APCH CLSD CTC HOUSTON ARTCC AT 281-230-5622.

Instrument Procedures

There are no published instrument procedures at LS37.

Some nearby airports with instrument procedures:

KUXL - Southland Field Airport (6 nm S)
KLCH - Lake Charles Regional Airport (10 nm SE)
KCWF - Chennault International Airport (12 nm E)
5R8 - De Quincy Industrial Airpark (14 nm NW)
KORG - Orange County Airport (25 nm SW)
 
Loc | Ops | Rwys | IFR | FBO | Links
Com | Nav | Svcs | Stats | Notes
Area around LS37 (West Calcasieu Cameron Hospital Heliport)
 
Road maps at: MapQuest Bing Google
 
Aerial photo
No photo
 
Sectional chart

 
Airport distance calculator
Flying to West Calcasieu Cameron Hospital Heliport? Find the distance to fly.

From to LS37

Sunrise and sunset
Times for 02-Oct-2022
 Local
(UTC-5)
 Zulu
(UTC)
Morning civil twilight06:4511:45
Sunrise07:0812:08
Sunset18:5723:57
Evening civil twilight19:2100:21

Current date and time
Zulu (UTC)  02-Oct-2022 10:47:12
Local (UTC-5)  02-Oct-2022 05:47:12
 
METAR
KUXL 
6nm S 
021035Z AUTO 34003KT 10SM CLR 12/08 A3008 RMK AO2 T01170080
KLCH 
10nm SE 
020953Z AUTO 03003KT 10SM CLR 14/08 A3006 RMK AO2 SLP187 T01390083
KCWF 
11nm E 
021035Z AUTO 00000KT 10SM CLR 14/09 A3007 RMK AO2 T01430088
K5R8 
14nm NW 
021035Z AUTO 00000KT 10SM CLR 09/08 A3009 RMK AO2 T00900075
TAF
KLCH 
10nm SE 
020520Z 0206/0306 VRB04KT P6SM SKC FM021500 04007KT P6SM SKC FM030100 VRB03KT P6SM SKC
NOTAMs
Click for the latest NOTAMs
NOTAMs are issued by the DoD/FAA and will open in a separate window not controlled by AirNav.

 

 
 

Would you like to see your business listed on this page?

 If your business provides an interesting product or service to pilots, flight crews, aircraft, or users of the West Calcasieu Cameron Hospital Heliport, you should consider listing it here.  To start the listing process, click on the button below
 
Add a business
 

Other Pages about West Calcasieu Cameron Hospital Heliport

Update a link
 
Copyright © AirNav, LLC. All rights reserved. Privacy Policy  Contact